Time;durP1;ratioP1;P1;durP2;ratioP2;P2;SDS_P1;SDS_P2;PMS_P1;PMS_P2;Temp;Humidity;BMP_temperature;BMP_pressure;BME280_temperature;BME280_humidity;BME280_pressure;Samples;Min_cycle;Max_cycle;Signal;HPM_P1;HPM_P2
2022/02/05 00:02:12;;;;;;;7.93;3.90;;;;;;;4.18;100.00;101520.34;5229367;28;20033;-74
2022/02/05 00:04:45;;;;;;;11.00;4.00;;;;;;;4.20;100.00;101521.09;5229463;28;20580;-74
2022/02/05 00:07:16;;;;;;;9.80;4.68;;;;;;;4.22;100.00;101527.06;5210427;28;20121;-74
2022/02/05 00:10:12;;;;;;;10.02;3.95;;;;;;;4.22;100.00;101530.50;5226185;28;20040;-74
2022/02/05 00:13:05;;;;;;;9.95;4.25;;;;;;;4.22;100.00;101529.66;5226614;28;20025;-74
2022/02/05 00:15:46;;;;;;;8.05;3.72;;;;;;;4.25;100.00;101539.91;5228001;28;20045;-74
2022/02/05 00:41:13;;;;;;;8.82;3.80;;;;;;;3.97;100.00;101567.09;5197876;28;20033;-74
2022/02/05 00:43:55;;;;;;;8.52;3.50;;;;;;;3.97;100.00;101568.84;5212946;28;20034;-74
2022/02/05 00:46:32;;;;;;;12.75;4.45;;;;;;;3.92;100.00;101576.84;5229862;28;20463;-74
2022/02/05 00:49:03;;;;;;;13.43;4.43;;;;;;;3.88;100.00;101565.75;5229407;28;20116;-75
2022/02/05 00:52:00;;;;;;;6.32;3.92;;;;;;;3.90;100.00;101574.31;5228529;28;20437;-74
2022/02/05 00:54:29;;;;;;;10.80;4.20;;;;;;;3.88;100.00;101572.69;5227518;28;20487;-74
2022/02/05 00:59:34;;;;;;;16.02;4.32;;;;;;;3.86;100.00;101582.28;5228562;28;20060;-74
2022/02/05 01:02:05;;;;;;;11.77;4.45;;;;;;;3.83;100.00;101582.44;5229016;28;20029;-74
2022/02/05 01:04:37;;;;;;;9.20;3.92;;;;;;;3.69;100.00;101571.84;5229271;28;20025;-75
2022/02/05 01:07:08;;;;;;;11.18;4.85;;;;;;;3.75;100.00;101585.38;5230139;28;20108;-74
2022/02/05 01:09:42;;;;;;;8.48;4.25;;;;;;;3.76;100.00;101592.25;5223816;28;20041;-71
2022/02/05 01:12:13;;;;;;;9.32;4.28;;;;;;;3.74;100.00;101607.00;5227709;28;20028;-73
2022/02/05 01:14:51;;;;;;;10.68;4.40;;;;;;;3.74;100.00;101609.59;5229525;28;20038;-74
2022/02/05 01:17:29;;;;;;;9.73;4.25;;;;;;;3.72;100.00;101608.84;5213263;28;20183;-74
2022/02/05 01:22:43;;;;;;;13.43;4.20;;;;;;;3.72;100.00;101603.66;5232944;28;20047;-74
2022/02/05 01:25:20;;;;;;;12.02;4.82;;;;;;;3.77;100.00;101619.00;5213818;28;20415;-73
2022/02/05 01:27:57;;;;;;;9.57;4.25;;;;;;;3.74;100.00;101616.53;5229922;28;20059;-73
2022/02/05 01:30:34;;;;;;;11.40;4.78;;;;;;;3.73;100.00;101628.66;5233260;28;20061;-73
2022/02/05 01:35:46;;;;;;;11.88;4.95;;;;;;;3.74;100.00;101625.13;5233179;28;20042;-74
2022/02/05 01:53:05;;;;;;;16.88;4.80;;;;;;;3.66;100.00;101651.38;5232657;28;20041;-74
2022/02/05 01:58:52;;;;;;;17.38;5.00;;;;;;;3.64;100.00;101655.81;5229216;28;20035;-74
2022/02/05 02:10:27;;;;;;;11.55;4.05;;;;;;;3.62;100.00;101661.97;5180844;28;20035;-73
2022/02/05 02:19:02;;;;;;;14.45;4.97;;;;;;;3.57;100.00;101674.28;5231385;28;20100;-73
2022/02/05 02:21:41;;;;;;;12.37;4.17;;;;;;;3.61;100.00;101675.81;5231026;28;20032;-74
2022/02/05 02:24:23;;;;;;;10.75;3.92;;;;;;;3.57;100.00;101680.28;5229487;28;20033;-73
2022/02/05 02:32:12;;;;;;;14.65;3.80;;;;;;;3.55;100.00;101673.47;5231959;28;20044;-73
2022/02/05 02:34:48;;;;;;;13.20;4.18;;;;;;;3.59;100.00;101680.22;5232289;28;20475;-74
2022/02/05 02:37:27;;;;;;;16.10;4.50;;;;;;;3.58;100.00;101688.91;5231048;28;20034;-73
2022/02/05 02:40:11;;;;;;;13.57;3.90;;;;;;;3.57;100.00;101689.81;5230945;28;20079;-73
2022/02/05 02:42:46;;;;;;;;;;;;;;;3.97;100.00;101694.13;5231357;28;20030;-73
2022/02/05 02:45:18;;;;;;;13.77;3.75;;;;;;;3.59;100.00;101709.56;5229848;28;19917;-73
2022/02/05 02:47:49;;;;;;;10.40;4.05;;;;;;;3.58;100.00;101704.44;5232197;28;20596;-73
2022/02/05 02:58:39;;;;;;;10.15;4.47;;;;;;;3.48;100.00;101709.16;5230494;28;20037;-73
2022/02/05 03:01:17;;;;;;;13.02;4.53;;;;;;;3.48;100.00;101721.28;5229359;28;20487;-73
2022/02/05 03:03:48;;;;;;;14.27;4.93;;;;;;;3.43;100.00;101724.06;5230248;28;20037;-73
2022/02/05 03:06:20;;;;;;;16.70;4.47;;;;;;;3.44;100.00;101725.72;5230390;28;20013;-73
2022/02/05 03:08:51;;;;;;;12.98;4.85;;;;;;;3.44;100.00;101724.91;5230961;28;20029;-74
2022/02/05 03:11:23;;;;;;;14.15;5.03;;;;;;;3.38;100.00;101731.19;5231232;28;20486;-74
2022/02/05 03:13:54;;;;;;;13.70;4.40;;;;;;;3.36;100.00;101733.81;5229102;28;20026;-74
2022/02/05 03:16:28;;;;;;;11.13;4.22;;;;;;;3.37;100.00;101734.66;5230308;28;20029;-73
2022/02/05 03:19:09;;;;;;;8.20;4.00;;;;;;;3.33;100.00;101735.69;5229558;28;20025;-73
2022/02/05 03:21:41;;;;;;;12.15;4.30;;;;;;;3.32;100.00;101740.03;5207568;28;20025;-73
2022/02/05 03:24:12;;;;;;;10.32;4.07;;;;;;;3.28;100.00;101741.06;5229391;28;20429;-73
2022/02/05 03:26:44;;;;;;;10.75;4.40;;;;;;;3.28;100.00;101741.06;5213419;28;20120;-73
2022/02/05 03:29:15;;;;;;;13.32;5.00;;;;;;;3.23;100.00;101737.81;5229832;28;20044;-73
2022/02/05 03:31:46;;;;;;;11.48;4.03;;;;;;;3.26;100.00;101742.00;5230062;28;20524;-73
2022/02/05 03:34:18;;;;;;;11.55;4.30;;;;;;;3.26;100.00;101747.19;5228866;28;20083;-73
2022/02/05 03:36:49;;;;;;;12.00;4.93;;;;;;;3.23;100.00;101758.53;5230373;28;20037;-73
2022/02/05 03:39:21;;;;;;;17.17;5.28;;;;;;;3.15;100.00;101748.47;5229694;28;20025;-73
2022/02/05 03:41:52;;;;;;;17.15;4.28;;;;;;;3.23;100.00;101758.53;5229409;28;20029;-73
2022/02/05 03:44:24;;;;;;;12.45;4.55;;;;;;;3.23;100.00;101755.94;5229944;28;20120;-73
2022/02/05 03:46:55;;;;;;;15.25;4.53;;;;;;;3.25;100.00;101758.47;5230337;28;20395;-73
2022/02/05 03:49:27;;;;;;;18.30;4.85;;;;;;;3.29;100.00;101758.28;5209183;28;20030;-74
2022/02/05 03:51:58;;;;;;;13.85;4.30;;;;;;;3.27;100.00;101760.09;5230666;28;20122;-73
2022/02/05 03:54:31;;;;;;;15.82;5.30;;;;;;;3.28;100.00;101758.34;5230275;28;20021;-73
2022/02/05 03:57:03;;;;;;;10.00;3.72;;;;;;;3.29;100.00;101757.44;5227623;28;20109;-73
2022/02/05 03:59:34;;;;;;;16.45;4.50;;;;;;;3.27;100.00;101770.47;5229094;28;20554;-74
2022/02/05 04:02:05;;;;;;;11.57;3.55;;;;;;;3.25;100.00;101766.22;5228360;28;20079;-73
2022/02/05 04:04:36;;;;;;;12.98;4.20;;;;;;;3.23;100.00;101752.53;5230629;28;20028;-73
2022/02/05 04:07:08;;;;;;;10.90;4.22;;;;;;;3.16;100.00;101763.09;5233365;28;20025;-73
2022/02/05 04:09:45;;;;;;;13.68;4.10;;;;;;;3.11;100.00;101754.69;5233423;28;20497;-73
2022/02/05 04:17:56;;;;;;;14.25;4.47;;;;;;;3.06;100.00;101774.72;5232699;28;20067;-73
2022/02/05 04:20:28;;;;;;;10.60;4.80;;;;;;;3.05;100.00;101780.81;5233594;28;20602;-73
2022/02/05 04:22:59;;;;;;;15.32;4.22;;;;;;;3.04;100.00;101773.94;5232741;28;20486;-73
2022/02/05 04:25:31;;;;;;;11.95;4.35;;;;;;;3.04;100.00;101786.88;5234978;28;20100;-73
2022/02/05 04:28:03;;;;;;;8.48;3.92;;;;;;;3.02;100.00;101780.91;5232522;28;20517;-73
2022/02/05 04:30:35;;;;;;;14.65;4.40;;;;;;;3.03;100.00;101787.81;5234151;28;20425;-73
2022/02/05 04:33:06;;;;;;;15.02;5.70;;;;;;;3.06;100.00;101786.81;5233894;28;20037;-73
2022/02/05 04:35:38;;;;;;;15.45;4.45;;;;;;;3.08;100.00;101796.22;5232388;28;20482;-73
2022/02/05 04:38:09;;;;;;;16.08;4.38;;;;;;;3.08;100.00;101792.78;5213926;28;20490;-73
2022/02/05 04:41:30;;;;;;;12.63;4.60;;;;;;;3.09;100.00;101792.72;5217710;28;20540;-73
2022/02/05 04:43:54;;;;;;;12.00;4.50;;;;;;;3.14;100.00;101797.72;5221484;28;20444;-73
2022/02/05 04:50:11;;;;;;;15.38;4.57;;;;;;;3.17;100.00;101792.44;5156735;28;20038;-73
2022/02/05 05:01:05;;;;;;;14.77;5.38;;;;;;;3.09;100.00;101805.66;5232620;28;20569;-73
2022/02/05 05:08:52;;;;;;;9.60;3.95;;;;;;;3.03;100.00;101811.09;5232186;28;20038;-73
2022/02/05 05:19:46;;;;;;;12.85;4.65;;;;;;;3.00;100.00;101818.97;5230499;28;20033;-73
2022/02/05 05:22:17;;;;;;;11.27;4.40;;;;;;;3.03;100.00;101828.34;5232968;28;20120;-73
2022/02/05 05:24:49;;;;;;;12.55;4.20;;;;;;;3.03;100.00;101820.56;5232349;28;20136;-73
2022/02/05 05:27:20;;;;;;;9.93;4.72;;;;;;;3.09;100.00;101833.31;5231667;28;20491;-73
2022/02/05 05:29:52;;;;;;;13.75;4.20;;;;;;;3.11;100.00;101840.13;5231934;28;20517;-73
2022/02/05 05:32:23;;;;;;;10.45;4.32;;;;;;;3.09;100.00;101836.72;5231306;28;20108;-73
2022/02/05 05:34:54;;;;;;;10.55;4.25;;;;;;;3.12;100.00;101836.63;5234605;28;20387;-73
2022/02/05 05:37:25;;;;;;;16.15;4.85;;;;;;;3.16;100.00;101839.94;5231068;28;20446;-74
2022/02/05 05:39:57;;;;;;;11.48;4.53;;;;;;;3.12;100.00;101828.84;5232507;28;20021;-73
2022/02/05 05:42:34;;;;;;;12.18;4.22;;;;;;;3.13;100.00;101840.91;5230229;28;20063;-73
2022/02/05 05:47:59;;;;;;;10.63;4.38;;;;;;;3.15;100.00;101852.06;5233184;28;20120;-73
2022/02/05 05:53:13;;;;;;;10.32;4.20;;;;;;;3.21;100.00;101863.06;5231477;28;20441;-73
2022/02/05 05:55:47;;;;;;;9.75;4.30;;;;;;;3.23;100.00;101862.13;5231813;28;20017;-73
2022/02/05 05:58:19;;;;;;;16.17;4.90;;;;;;;3.20;100.00;101862.22;5231929;28;20029;-73
2022/02/05 06:00:50;;;;;;;10.88;4.18;;;;;;;3.18;100.00;101866.59;5231231;28;20050;-73
2022/02/05 06:03:22;;;;;;;11.57;4.70;;;;;;;3.20;100.00;101866.56;5231848;28;20053;-74
2022/02/05 06:05:53;;;;;;;13.02;5.10;;;;;;;3.20;100.00;101869.16;5232157;28;20100;-73
2022/02/05 06:08:24;;;;;;;10.88;4.43;;;;;;;3.19;100.00;101870.06;5231950;28;20445;-73
2022/02/05 06:10:56;;;;;;;12.25;4.00;;;;;;;3.17;100.00;101872.69;5231377;28;20389;-73
2022/02/05 06:13:28;;;;;;;16.65;5.15;;;;;;;3.15;100.00;101874.50;5232783;28;20399;-73
2022/02/05 06:15:59;;;;;;;12.23;4.45;;;;;;;3.07;100.00;101868.75;5231522;28;20107;-73
2022/02/05 06:18:31;;;;;;;12.95;4.30;;;;;;;3.06;100.00;101875.69;5232463;28;20030;-73
2022/02/05 06:21:02;;;;;;;18.83;4.82;;;;;;;3.05;100.00;101876.59;5233016;28;20037;-73
2022/02/05 06:23:34;;;;;;;14.15;4.75;;;;;;;3.04;100.00;101882.66;5231022;28;20099;-73
2022/02/05 06:26:05;;;;;;;11.38;4.63;;;;;;;3.03;100.00;101874.94;5230084;28;20116;-73
2022/02/05 06:28:36;;;;;;;10.70;4.20;;;;;;;3.03;100.00;101895.66;5231184;28;20080;-73
2022/02/05 06:31:08;;;;;;;9.80;4.78;;;;;;;2.98;100.00;101895.81;5230477;28;20936;-73
2022/02/05 06:33:39;;;;;;;13.30;4.72;;;;;;;2.99;100.00;101884.56;5232457;28;20040;-73
2022/02/05 06:36:10;;;;;;;14.05;5.13;;;;;;;2.93;100.00;101884.81;5231855;28;20382;-73
2022/02/05 06:38:41;;;;;;;13.45;4.40;;;;;;;2.89;100.00;101881.47;5231341;28;20065;-73
2022/02/05 06:41:13;;;;;;;10.77;4.60;;;;;;;2.90;100.00;101879.72;5213303;28;20025;-73
2022/02/05 06:43:44;;;;;;;16.80;4.47;;;;;;;2.88;100.00;101882.38;5228605;28;20095;-73
2022/02/05 06:46:16;;;;;;;11.27;4.18;;;;;;;2.85;100.00;101884.25;5230165;28;20116;-73
2022/02/05 06:48:47;;;;;;;15.55;4.60;;;;;;;2.84;100.00;101895.47;5230987;28;20087;-73
2022/02/05 06:51:18;;;;;;;14.70;4.53;;;;;;;2.84;100.00;101892.88;5211478;28;20091;-73
2022/02/05 06:53:50;;;;;;;20.48;4.93;;;;;;;2.80;100.00;101899.06;5231617;28;20036;-74
2022/02/05 06:56:21;;;;;;;13.27;4.65;;;;;;;2.79;100.00;101894.81;5229497;28;20036;-74
2022/02/05 06:58:52;;;;;;;9.73;4.78;;;;;;;2.78;100.00;101893.13;5231223;28;21171;-74
2022/02/05 07:01:24;;;;;;;11.50;4.47;;;;;;;2.75;100.00;101898.41;5229093;28;20025;-74
2022/02/05 07:03:55;;;;;;;10.05;4.13;;;;;;;2.78;100.00;101904.31;5222143;28;20542;-73
2022/02/05 07:06:26;;;;;;;11.65;4.18;;;;;;;2.76;100.00;101905.25;5228641;28;20027;-73
2022/02/05 07:08:58;;;;;;;13.98;4.55;;;;;;;2.73;100.00;101902.78;5228403;28;20029;-74
2022/02/05 07:11:29;;;;;;;14.05;5.35;;;;;;;2.72;100.00;101906.25;5229602;28;20025;-73
2022/02/05 07:14:03;;;;;;;16.50;4.90;;;;;;;2.70;100.00;101902.91;5231393;28;20029;-74
2022/02/05 07:16:39;;;;;;;12.57;5.32;;;;;;;2.75;100.00;101921.69;5230603;28;20021;-74
2022/02/05 07:19:25;;;;;;;12.40;4.28;;;;;;;2.76;100.00;101920.78;5229652;28;20025;-74
2022/02/05 07:21:56;;;;;;;8.60;5.00;;;;;;;2.76;100.00;101923.38;5195637;28;20037;-74
2022/02/05 07:24:34;;;;;;;20.60;5.45;;;;;;;2.76;100.00;101931.13;5225097;28;20431;-73
2022/02/05 07:30:06;;;;;;;11.68;4.60;;;;;;;2.76;100.00;101933.72;5161770;28;20057;-74
2022/02/05 07:32:38;;;;;;;16.05;4.63;;;;;;;2.75;100.00;101934.63;5226183;28;20317;-73
2022/02/05 07:35:09;;;;;;;10.40;4.30;;;;;;;2.79;100.00;101944.81;5211034;28;20014;-73
2022/02/05 07:37:40;;;;;;;13.25;5.43;;;;;;;2.78;100.00;101942.28;5228781;28;20014;-73
2022/02/05 07:40:12;;;;;;;11.90;4.43;;;;;;;2.78;100.00;101948.31;5226775;28;20068;-73
2022/02/05 07:42:43;;;;;;;13.77;4.50;;;;;;;2.77;100.00;101943.19;5227374;28;20053;-73
2022/02/05 07:45:15;;;;;;;14.05;6.05;;;;;;;2.78;100.00;101952.63;5227780;28;20025;-73
2022/02/05 07:47:47;;;;;;;13.85;4.95;;;;;;;2.72;100.00;101939.91;5228586;28;20038;-73
2022/02/05 07:50:18;;;;;;;18.35;5.40;;;;;;;2.79;100.00;101949.97;5229354;28;20030;-74
2022/02/05 07:52:50;;;;;;;14.65;5.78;;;;;;;2.83;100.00;101958.50;5206486;28;20036;-74
2022/02/05 07:55:21;;;;;;;11.82;4.78;;;;;;;2.78;100.00;101956.06;5232013;28;20687;-74
2022/02/05 07:57:52;;;;;;;17.00;4.80;;;;;;;2.79;100.00;101967.25;5211125;28;20475;-74
2022/02/05 08:00:24;;;;;;;11.75;4.55;;;;;;;2.83;100.00;101967.09;5225817;28;20034;-73
2022/02/05 08:02:57;;;;;;;11.00;4.57;;;;;;;2.80;100.00;101961.19;5227719;28;20136;-73
2022/02/05 08:05:29;;;;;;;13.70;5.05;;;;;;;2.81;100.00;101962.88;5227719;28;20030;-73
2022/02/05 08:08:01;;;;;;;15.27;5.15;;;;;;;2.86;100.00;101971.34;5228366;28;20398;-73
2022/02/05 08:10:37;;;;;;;12.68;4.85;;;;;;;2.86;100.00;101966.16;5223550;28;20440;-74
2022/02/05 08:13:08;;;;;;;15.38;4.78;;;;;;;2.91;100.00;101972.84;5229762;28;20036;-73
2022/02/05 08:15:40;;;;;;;16.08;5.22;;;;;;;2.89;100.00;101969.47;5227305;28;20029;-73
2022/02/05 08:18:11;;;;;;;11.45;4.47;;;;;;;2.96;100.00;101967.53;5229993;28;20112;-73
2022/02/05 08:20:42;;;;;;;16.50;4.80;;;;;;;2.99;100.00;101969.16;5228499;28;20040;-73
2022/02/05 08:23:14;;;;;;;15.07;4.75;;;;;;;3.01;100.00;101968.22;5230121;28;20088;-73
2022/02/05 08:25:48;;;;;;;17.02;5.10;;;;;;;3.04;100.00;101944.81;5229679;28;20042;-74
2022/02/05 08:28:19;;;;;;;12.48;4.35;;;;;;;3.12;100.00;101953.13;5228367;28;20060;-73
2022/02/05 08:30:52;;;;;;;13.38;4.50;;;;;;;3.18;100.00;101957.25;5226783;28;20061;-72
2022/02/05 08:33:23;;;;;;;14.45;5.00;;;;;;;3.19;100.00;101953.78;5209146;28;20080;-73
2022/02/05 08:35:55;;;;;;;18.27;4.50;;;;;;;3.25;100.00;101961.28;5226477;28;20033;-73
2022/02/05 08:38:26;;;;;;;9.85;4.90;;;;;;;3.28;100.00;101974.16;5228798;28;20032;-73
2022/02/05 08:40:58;;;;;;;12.27;4.43;;;;;;;3.31;100.00;101973.19;5226910;28;20160;-73
2022/02/05 08:43:30;;;;;;;12.48;4.70;;;;;;;3.35;100.00;101967.84;5228096;28;20104;-73
2022/02/05 08:46:02;;;;;;;13.03;4.90;;;;;;;3.44;100.00;101969.25;5225618;28;20425;-73
2022/02/05 08:48:34;;;;;;;16.33;4.45;;;;;;;3.47;100.00;101965.69;5228194;28;20319;-73
2022/02/05 08:51:05;;;;;;;10.52;4.15;;;;;;;3.53;100.00;101970.66;5226359;28;20030;-73
2022/02/05 08:53:37;;;;;;;17.48;5.18;;;;;;;3.59;100.00;101965.25;5212698;28;20014;-73
2022/02/05 08:56:08;;;;;;;15.48;4.63;;;;;;;3.62;100.00;101955.59;5230948;28;20037;-74
2022/02/05 08:58:40;;;;;;;15.57;4.40;;;;;;;3.66;100.00;101956.34;5230407;28;20113;-74
2022/02/05 09:01:16;;;;;;;16.20;4.95;;;;;;;3.72;100.00;101956.09;5232063;28;20056;-74
2022/02/05 09:04:10;;;;;;;13.45;4.38;;;;;;;3.80;100.00;101967.03;5232899;28;20072;-74
2022/02/05 09:06:45;;;;;;;;;;;;;;;4.19;100.00;101973.28;5231140;28;20152;-74
2022/02/05 09:14:49;;;;;;;10.63;4.55;;;;;;;4.04;100.00;101982.53;5230148;28;20482;-73
2022/02/05 09:17:21;;;;;;;9.40;4.40;;;;;;;4.08;100.00;101971.97;5233154;28;20060;-74
2022/02/05 09:19:52;;;;;;;15.43;4.47;;;;;;;4.15;100.00;101988.97;5229733;28;20033;-73
2022/02/05 09:22:24;;;;;;;15.18;4.95;;;;;;;4.20;100.00;101990.53;5232692;28;20021;-74
2022/02/05 09:24:58;;;;;;;13.43;4.68;;;;;;;4.28;100.00;102009.22;5211871;28;20072;-73
2022/02/05 09:27:37;;;;;;;9.68;4.15;;;;;;;4.33;100.00;102007.31;5230522;28;20106;-73
2022/02/05 09:30:14;;;;;;;14.15;5.03;;;;;;;4.36;100.00;102014.97;5231003;28;20013;-74
2022/02/05 09:32:45;;;;;;;12.98;4.18;;;;;;;4.46;100.00;102007.66;5230977;28;20258;-73
2022/02/05 09:35:17;;;;;;;11.95;3.92;;;;;;;4.52;100.00;102007.41;5233068;28;20505;-73
2022/02/05 09:37:48;;;;;;;12.48;4.25;;;;;;;4.58;100.00;102012.34;5231812;28;20583;-73
2022/02/05 09:40:20;;;;;;;10.10;4.28;;;;;;;4.67;100.00;102016.34;5232847;28;20431;-73
2022/02/05 09:42:51;;;;;;;13.35;4.43;;;;;;;4.74;100.00;102016.00;5231845;28;20386;-74
2022/02/05 09:45:24;;;;;;;15.85;4.32;;;;;;;4.76;100.00;102009.00;5233125;28;20028;-73
2022/02/05 09:47:55;;;;;;;15.13;4.63;;;;;;;4.82;100.00;102015.69;5231400;28;20035;-74
2022/02/05 09:50:27;;;;;;;12.25;4.13;;;;;;;4.86;100.00;102014.66;5227753;28;20025;-74
2022/02/05 09:53:04;;;;;;;19.10;5.00;;;;;;;4.89;100.00;102004.16;5227405;28;20120;-74
2022/02/05 09:55:35;;;;;;;11.20;3.95;;;;;;;4.91;100.00;102007.50;5212068;28;20028;-74
2022/02/05 09:58:07;;;;;;;14.18;4.07;;;;;;;5.01;100.00;102005.38;5233599;28;21047;-74
2022/02/05 10:00:38;;;;;;;14.50;3.75;;;;;;;5.10;100.00;102007.56;5232306;28;20056;-76
2022/02/05 10:03:32;;;;;;;9.73;3.80;;;;;;;5.28;100.00;102009.38;5230997;28;20533;-73
2022/02/05 10:06:09;;;;;;;10.25;4.28;;;;;;;5.24;100.00;101999.19;5227430;28;20025;-73
2022/02/05 10:09:05;;;;;;;9.90;3.88;;;;;;;5.33;100.00;102003.97;5217004;28;20029;-74
2022/02/05 10:11:56;;;;;;;19.33;4.75;;;;;;;5.52;100.00;102007.41;5213402;28;20136;-74
2022/02/05 10:14:32;;;;;;;12.68;4.10;;;;;;;5.45;100.00;101999.97;5232560;28;20061;-74
2022/02/05 10:17:04;;;;;;;10.65;4.50;;;;;;;5.55;100.00;101994.28;5234469;28;20033;-74
2022/02/05 10:19:48;;;;;;;11.73;4.23;;;;;;;5.66;100.00;101992.97;5232265;28;20513;-74
2022/02/05 10:22:21;;;;;;;15.00;4.18;;;;;;;5.73;100.00;102000.41;5231246;28;20279;-73
2022/02/05 10:24:55;;;;;;;13.43;4.40;;;;;;;5.78;100.00;101997.59;5231244;28;20466;-73
2022/02/05 10:27:40;;;;;;;12.90;3.88;;;;;;;5.84;100.00;101999.94;5232317;28;20037;-74
2022/02/05 10:30:12;;;;;;;12.30;4.38;;;;;;;5.85;100.00;101999.84;5231182;28;20577;-74
2022/02/05 10:32:48;;;;;;;17.75;4.68;;;;;;;5.88;100.00;102004.06;5230792;28;20116;-73
2022/02/05 10:35:30;;;;;;;12.23;4.10;;;;;;;6.03;100.00;102005.97;5230062;28;20120;-74
2022/02/05 10:41:01;;;;;;;14.02;4.65;;;;;;;6.23;100.00;102002.41;5231591;28;20032;-73
2022/02/05 10:43:34;;;;;;;11.85;3.15;;;;;;;6.27;100.00;101993.56;5228235;28;20021;-73
2022/02/05 10:46:06;;;;;;;12.38;4.20;;;;;;;6.44;100.00;102003.16;5231010;28;20040;-73
2022/02/05 10:48:41;;;;;;;14.48;3.70;;;;;;;6.49;100.00;101995.97;5221919;28;20030;-74
2022/02/05 10:51:13;;;;;;;12.23;3.95;;;;;;;6.54;100.00;101978.34;5226398;28;20481;-74
2022/02/05 10:53:51;;;;;;;14.47;4.43;;;;;;;6.71;100.00;101981.88;5228601;28;20033;-73
2022/02/05 10:56:37;;;;;;;13.95;3.78;;;;;;;6.73;100.00;101977.41;5230194;28;20518;-73
2022/02/05 11:07:21;;;;;;;12.50;4.50;;;;;;;7.03;100.00;101986.28;5226003;28;20037;-74
2022/02/05 11:09:56;;;;;;;12.90;3.83;;;;;;;7.17;100.00;101982.97;5230002;28;20071;-73
2022/02/05 11:21:14;;;;;;;16.33;4.13;;;;;;;7.14;100.00;101982.28;5226274;28;20502;-73
2022/02/05 11:23:51;;;;;;;9.98;3.50;;;;;;;7.28;100.00;101971.97;5230334;28;20079;-73
2022/02/05 11:26:23;;;;;;;12.68;3.88;;;;;;;7.34;100.00;101968.19;5228448;28;20537;-74
2022/02/05 11:28:58;;;;;;;11.82;4.10;;;;;;;7.53;100.00;101976.69;5228748;28;20069;-73
2022/02/05 11:31:39;;;;;;;10.65;3.30;;;;;;;7.57;100.00;101980.81;5228091;28;20025;-74
2022/02/05 11:34:11;;;;;;;8.57;3.17;;;;;;;7.64;100.00;101965.69;5230405;28;20099;-73
2022/02/05 11:36:58;;;;;;;12.73;3.55;;;;;;;7.67;100.00;101968.97;5228876;28;20112;-74
2022/02/05 11:39:50;;;;;;;13.93;3.95;;;;;;;7.68;100.00;101965.44;5230510;28;20029;-74
2022/02/05 11:42:36;;;;;;;13.35;3.92;;;;;;;7.56;100.00;101963.50;5229318;28;20036;-74
2022/02/05 11:45:26;;;;;;;12.10;3.25;;;;;;;7.58;100.00;101969.50;5225969;28;20032;-75
2022/02/05 11:48:43;;;;;;;11.85;3.50;;;;;;;7.45;100.00;101978.88;5228693;28;20364;-74
2022/02/05 11:51:17;;;;;;;10.50;3.63;;;;;;;7.19;100.00;101981.09;5187780;28;20041;-73
2022/02/05 11:54:04;;;;;;;14.13;3.60;;;;;;;7.36;100.00;101975.00;5209579;28;20018;-73
2022/02/05 11:56:50;;;;;;;8.85;3.00;;;;;;;7.44;100.00;101964.19;5227291;28;20029;-73
2022/02/05 11:59:23;;;;;;;10.77;2.63;;;;;;;7.64;100.00;101957.88;5223303;28;20779;-73
2022/02/05 12:02:17;;;;;;;12.02;3.38;;;;;;;7.83;100.00;101948.09;5226962;28;20029;-74
2022/02/05 12:05:23;;;;;;;11.27;2.78;;;;;;;7.87;100.00;101941.78;5224276;28;20453;-74
2022/02/05 12:08:01;;;;;;;8.27;2.92;;;;;;;7.92;100.00;101939.78;5227392;28;20029;-74
2022/02/05 12:10:34;;;;;;;11.38;3.80;;;;;;;7.89;100.00;101926.06;5228205;28;20033;-74
2022/02/05 12:13:15;;;;;;;15.00;3.03;;;;;;;7.99;100.00;101919.38;5212389;28;20064;-73
2022/02/05 12:15:59;;;;;;;7.13;2.47;;;;;;;8.06;100.00;101925.94;5228373;28;20384;-74
2022/02/05 12:18:31;;;;;;;;;;;;;;;8.35;100.00;101921.66;5229679;28;20021;-73
2022/02/05 12:21:09;;;;;;;9.15;2.85;;;;;;;8.12;100.00;101917.75;5229514;28;19913;-73
2022/02/05 12:26:29;;;;;;;5.97;2.35;;;;;;;8.10;100.00;101930.06;5230546;28;20037;-74
2022/02/05 12:29:01;;;;;;;;;;;;;;;8.52;100.00;101929.41;5231483;28;20442;-73
2022/02/05 12:31:36;;;;;;;14.50;3.25;;;;;;;8.24;100.00;101921.44;5232363;28;20125;-74
2022/02/05 12:34:13;;;;;;;6.30;2.15;;;;;;;8.24;100.00;101919.66;5231861;28;20030;-74
2022/02/05 12:36:47;;;;;;;7.28;1.90;;;;;;;8.17;100.00;101926.16;5213364;28;20045;-73
2022/02/05 12:39:33;;;;;;;6.30;2.10;;;;;;;8.19;100.00;101929.53;5232879;28;20080;-73
2022/02/05 12:42:11;;;;;;;11.35;2.10;;;;;;;7.99;100.00;101920.25;5216363;28;20126;-74
2022/02/05 12:44:45;;;;;;;10.98;2.65;;;;;;;7.91;100.00;101909.38;5232450;28;20026;-73
2022/02/05 12:47:33;;;;;;;10.63;2.70;;;;;;;7.90;100.00;101909.47;5231886;28;20117;-73
2022/02/05 12:50:14;;;;;;;12.80;3.22;;;;;;;7.79;100.00;101907.47;5225467;28;20033;-73
2022/02/05 12:52:50;;;;;;;10.60;2.47;;;;;;;7.93;100.00;101907.53;5230646;28;20035;-74
2022/02/05 12:55:27;;;;;;;10.13;2.40;;;;;;;7.83;100.00;101898.53;5230211;28;20022;-74
2022/02/05 12:58:02;;;;;;;9.75;2.22;;;;;;;7.84;100.00;101905.47;5230453;28;20395;-73
2022/02/05 13:00:33;;;;;;;6.78;1.95;;;;;;;7.93;100.00;101888.44;5212172;22;20050;-76
2022/02/05 13:03:24;;;;;;;13.70;2.95;;;;;;;8.04;100.00;101897.31;5188226;28;20022;-76
2022/02/05 13:05:56;;;;;;;7.82;2.35;;;;;;;7.99;100.00;101893.28;5194823;28;20038;-75
2022/02/05 13:08:43;;;;;;;10.95;2.42;;;;;;;8.17;100.00;101894.00;5194105;28;20427;-75
2022/02/05 13:11:19;;;;;;;7.07;2.30;;;;;;;8.21;100.00;101888.50;5175841;28;20038;-76
2022/02/05 13:13:53;;;;;;;6.38;1.80;;;;;;;8.18;100.00;101888.72;5174315;28;20027;-76
2022/02/05 13:16:34;;;;;;;;;;;;;;;8.57;100.00;101883.88;5174742;28;20031;-78
2022/02/05 13:19:26;;;;;;;8.38;2.75;;;;;;;8.30;100.00;101881.94;5176086;28;19929;-75
2022/02/05 13:36:14;;;;;;;8.27;2.10;;;;;;;8.25;100.00;101868.28;5178101;28;20054;-72
2022/02/05 13:42:04;;;;;;;7.93;2.00;;;;;;;8.35;100.00;101838.09;5176392;28;20089;-72
2022/02/05 13:44:42;;;;;;;8.48;2.30;;;;;;;8.52;100.00;101839.72;5177168;28;20035;-76
2022/02/05 13:47:17;;;;;;;9.32;2.15;;;;;;;8.42;100.00;101844.69;5179785;28;20023;-72
2022/02/05 13:50:12;;;;;;;7.05;2.30;;;;;;;8.61;100.00;101852.25;5179787;28;20041;-72
2022/02/05 13:52:49;;;;;;;7.05;1.80;;;;;;;8.48;100.00;101859.97;5178593;28;20093;-72
2022/02/05 13:55:28;;;;;;;7.38;2.30;;;;;;;8.32;100.00;101851.34;5179410;28;20065;-74
2022/02/05 13:58:09;;;;;;;7.68;1.77;;;;;;;8.32;100.00;101840.06;5175954;28;20039;-74
2022/02/05 14:00:46;;;;;;;11.48;2.53;;;;;;;8.33;100.00;101858.22;5178485;28;20105;-74
2022/02/05 14:03:32;;;;;;;7.95;2.00;;;;;;;8.43;100.00;101848.13;5179665;28;20112;-75
2022/02/05 14:06:08;;;;;;;10.80;2.00;;;;;;;8.52;100.00;101850.16;5178923;28;20061;-73
2022/02/05 14:08:40;;;;;;;8.05;2.10;;;;;;;8.56;100.00;101838.63;5179278;28;20499;-72
2022/02/05 14:11:13;;;;;;;13.57;2.43;;;;;;;8.51;100.00;101827.59;5179085;28;20030;-72
2022/02/05 14:13:54;;;;;;;;;;;;;;;9.02;100.00;101835.81;5178831;28;20344;-75
2022/02/05 14:16:35;;;;;;;11.05;2.10;;;;;;;8.76;100.00;101834.81;5179098;28;19925;-75
2022/02/05 14:19:07;;;;;;;10.50;2.28;;;;;;;8.60;100.00;101824.47;5179744;28;20450;-72
2022/02/05 14:21:45;;;;;;;9.77;2.23;;;;;;;8.70;100.00;101827.31;5177625;28;20612;-72
2022/02/05 14:24:18;;;;;;;7.82;1.95;;;;;;;8.81;100.00;101829.28;5178753;28;20058;-73
2022/02/05 14:29:25;;;;;;;11.55;2.25;;;;;;;8.81;100.00;101819.66;5180013;28;20042;-72
2022/02/05 14:31:57;;;;;;;11.25;2.20;;;;;;;8.75;100.00;101833.09;5181707;28;20472;-72
2022/02/05 14:34:45;;;;;;;9.05;2.10;;;;;;;8.59;100.00;101819.31;5179409;28;20595;-73
2022/02/05 14:43:00;;;;;;;7.50;2.28;;;;;;;8.57;100.00;101814.19;5178280;28;20050;-74
2022/02/05 14:45:32;;;;;;;9.65;1.80;;;;;;;8.56;100.00;101815.13;5177435;28;20022;-72
2022/02/05 14:48:04;;;;;;;12.13;2.30;;;;;;;8.53;100.00;101821.38;5176202;28;20030;-74